Hauptseite
METAR-TAF:

METAR-TAF

Flughäfen :

Flughafen Caen-Carpiquet

Caen, Frankreich

Breite: 49-11N, Länge: 000-27W, Höhe: 78 m

Beobachtung

Neuester Wetterbericht von vor 24 Minuten, um 03:30 UTC
Wind 4 kt aus West
Temperatur 5°C
Luftfeuchtigkeit 93%
Luftdruck 1035 hPa
Sichtweite 10 km oder mehr
keine Wolken unter 1500 m und keine Kumulonimbus oder Gewitterwolken

METAR: LFRK 230330Z AUTO 27004KT CAVOK 05/04 Q1035

Zeit: 05:54 (03:54 UTC)

Prognose

Neuester Wetterbericht von vor 13 Stunden und 54 Minuten, um 14:00 UTC
Gültige Prognose vom 22 um 15 UTC bis 22 um 24 UTC
Wind 15 kt aus Nord/Nordost, Böen bis zu 25 kt
Sichtweite 10 km oder mehr
Durchbrochene Bewölkung in der Höhe von 2000 ft
Übergehend zu
vom 22 um 15 UTC bis 22 um 18 UTC
Wind 10 kt aus Nord/Nordost

TAF: LFRK 221400Z 2215/2224 03015G25KT 9999 BKN020 BECMG 2215/2218 03010KT

Wetterbeobachtungen und Prognosen von mehr als 4000 Flughäfen (METAR und TAF Bericht).

Die verfügbaren Stationen werden durch gelbe und rote Markierungen auf der Karte dargestellt.

Führen Sie die Maus auf sie, um den Namen der Station zu sehen.

Darauf klicken, um die Beobachtung von Wetterbeobachtungen und Prognosen zu sehen.

Um die Karte zu ändern : klicken Sie auf den grünen Tasten mit einem schwarzen Kreuz Zum Vergrößern, auf den grünen Button mit einem Gedankenstrich zu verkleinern, oder auf die grünen Pfeile für benachbarte Karten.


METAR-TAF: